sensor_id;sensor_type;location;lat;lon;timestamp;P1;durP1;ratioP1;P2;durP2;ratioP2
20758;SDS011;10539;53.686;9.158;2022-07-12T00:01:53;356.83;;;9.23;;
20758;SDS011;10539;53.686;9.158;2022-07-12T00:04:19;81.93;;;5.20;;
20758;SDS011;10539;53.686;9.158;2022-07-12T00:06:45;4.57;;;3.73;;
20758;SDS011;10539;53.686;9.158;2022-07-12T00:09:11;4.20;;;3.40;;
20758;SDS011;10539;53.686;9.158;2022-07-12T00:11:37;5.57;;;3.80;;
20758;SDS011;10539;53.686;9.158;2022-07-12T00:14:03;6.30;;;3.53;;
20758;SDS011;10539;53.686;9.158;2022-07-12T00:16:30;4.20;;;3.13;;
20758;SDS011;10539;53.686;9.158;2022-07-12T00:18:56;6.87;;;3.63;;
20758;SDS011;10539;53.686;9.158;2022-07-12T00:21:22;4.80;;;3.50;;
20758;SDS011;10539;53.686;9.158;2022-07-12T00:23:48;3.63;;;3.00;;
20758;SDS011;10539;53.686;9.158;2022-07-12T00:26:14;217.33;;;12.67;;
20758;SDS011;10539;53.686;9.158;2022-07-12T00:28:40;8.27;;;4.17;;
20758;SDS011;10539;53.686;9.158;2022-07-12T00:31:06;5.10;;;3.80;;
20758;SDS011;10539;53.686;9.158;2022-07-12T00:33:32;6.03;;;3.60;;
20758;SDS011;10539;53.686;9.158;2022-07-12T00:35:57;5.33;;;3.60;;
20758;SDS011;10539;53.686;9.158;2022-07-12T00:38:23;303.00;;;13.87;;
20758;SDS011;10539;53.686;9.158;2022-07-12T00:40:49;5.47;;;2.80;;
20758;SDS011;10539;53.686;9.158;2022-07-12T00:43:15;4.60;;;3.20;;
20758;SDS011;10539;53.686;9.158;2022-07-12T00:45:41;6.70;;;3.40;;
20758;SDS011;10539;53.686;9.158;2022-07-12T00:48:07;4.63;;;3.13;;
20758;SDS011;10539;53.686;9.158;2022-07-12T00:50:33;6.10;;;4.00;;
20758;SDS011;10539;53.686;9.158;2022-07-12T00:52:59;6.77;;;3.40;;
20758;SDS011;10539;53.686;9.158;2022-07-12T00:55:25;7.00;;;4.03;;
20758;SDS011;10539;53.686;9.158;2022-07-12T00:57:51;5.83;;;3.43;;
20758;SDS011;10539;53.686;9.158;2022-07-12T01:00:20;6.40;;;3.10;;
20758;SDS011;10539;53.686;9.158;2022-07-12T01:02:51;6.73;;;3.03;;
20758;SDS011;10539;53.686;9.158;2022-07-12T01:05:18;4.87;;;2.90;;
20758;SDS011;10539;53.686;9.158;2022-07-12T01:07:45;5.00;;;2.90;;
20758;SDS011;10539;53.686;9.158;2022-07-12T01:10:11;4.60;;;3.03;;
20758;SDS011;10539;53.686;9.158;2022-07-12T01:12:37;4.30;;;3.00;;
20758;SDS011;10539;53.686;9.158;2022-07-12T01:15:04;4.43;;;3.60;;
20758;SDS011;10539;53.686;9.158;2022-07-12T01:17:31;4.10;;;3.20;;
20758;SDS011;10539;53.686;9.158;2022-07-12T01:19:57;6.77;;;3.50;;
20758;SDS011;10539;53.686;9.158;2022-07-12T01:22:30;6.40;;;3.10;;
20758;SDS011;10539;53.686;9.158;2022-07-12T01:24:57;4.67;;;3.20;;
20758;SDS011;10539;53.686;9.158;2022-07-12T01:27:25;5.17;;;3.03;;
20758;SDS011;10539;53.686;9.158;2022-07-12T01:29:50;4.00;;;3.10;;
20758;SDS011;10539;53.686;9.158;2022-07-12T01:32:16;5.27;;;3.43;;
20758;SDS011;10539;53.686;9.158;2022-07-12T01:35:00;4.13;;;3.23;;
20758;SDS011;10539;53.686;9.158;2022-07-12T01:37:28;7.00;;;3.60;;
20758;SDS011;10539;53.686;9.158;2022-07-12T01:40:06;7.00;;;3.43;;
20758;SDS011;10539;53.686;9.158;2022-07-12T01:42:34;6.57;;;3.47;;
20758;SDS011;10539;53.686;9.158;2022-07-12T01:45:00;6.20;;;3.13;;
20758;SDS011;10539;53.686;9.158;2022-07-12T01:47:27;5.90;;;3.27;;
20758;SDS011;10539;53.686;9.158;2022-07-12T01:49:56;9.60;;;3.10;;
20758;SDS011;10539;53.686;9.158;2022-07-12T01:52:22;5.90;;;3.00;;
20758;SDS011;10539;53.686;9.158;2022-07-12T01:54:48;4.30;;;2.87;;
20758;SDS011;10539;53.686;9.158;2022-07-12T01:57:14;2.80;;;2.50;;
20758;SDS011;10539;53.686;9.158;2022-07-12T01:59:40;5.13;;;3.00;;
20758;SDS011;10539;53.686;9.158;2022-07-12T02:02:07;5.37;;;2.53;;
20758;SDS011;10539;53.686;9.158;2022-07-12T02:04:33;4.70;;;3.20;;
20758;SDS011;10539;53.686;9.158;2022-07-12T02:07:00;4.27;;;2.27;;
20758;SDS011;10539;53.686;9.158;2022-07-12T02:09:26;7.90;;;1.93;;
20758;SDS011;10539;53.686;9.158;2022-07-12T02:11:52;5.73;;;2.07;;
20758;SDS011;10539;53.686;9.158;2022-07-12T02:14:18;6.57;;;2.20;;
20758;SDS011;10539;53.686;9.158;2022-07-12T02:16:44;3.27;;;2.17;;
20758;SDS011;10539;53.686;9.158;2022-07-12T02:19:10;6.93;;;2.50;;
20758;SDS011;10539;53.686;9.158;2022-07-12T02:21:37;6.70;;;2.13;;
20758;SDS011;10539;53.686;9.158;2022-07-12T02:24:03;5.33;;;2.40;;
20758;SDS011;10539;53.686;9.158;2022-07-12T02:26:30;3.60;;;2.50;;
20758;SDS011;10539;53.686;9.158;2022-07-12T02:28:57;3.77;;;2.50;;
20758;SDS011;10539;53.686;9.158;2022-07-12T02:31:23;3.83;;;2.87;;
20758;SDS011;10539;53.686;9.158;2022-07-12T02:33:48;6.00;;;3.37;;
20758;SDS011;10539;53.686;9.158;2022-07-12T02:36:14;5.13;;;3.47;;
20758;SDS011;10539;53.686;9.158;2022-07-12T02:38:40;10.37;;;3.67;;
20758;SDS011;10539;53.686;9.158;2022-07-12T02:41:05;9.53;;;4.03;;
20758;SDS011;10539;53.686;9.158;2022-07-12T02:43:31;6.03;;;3.77;;
20758;SDS011;10539;53.686;9.158;2022-07-12T02:46:06;8.23;;;3.70;;
20758;SDS011;10539;53.686;9.158;2022-07-12T02:48:33;8.77;;;4.00;;
20758;SDS011;10539;53.686;9.158;2022-07-12T02:50:59;9.27;;;4.47;;
20758;SDS011;10539;53.686;9.158;2022-07-12T02:53:25;8.43;;;4.37;;
20758;SDS011;10539;53.686;9.158;2022-07-12T02:55:52;6.60;;;4.27;;
20758;SDS011;10539;53.686;9.158;2022-07-12T02:58:17;7.83;;;4.20;;
20758;SDS011;10539;53.686;9.158;2022-07-12T03:00:43;6.93;;;4.47;;
20758;SDS011;10539;53.686;9.158;2022-07-12T03:03:12;9.10;;;4.60;;
20758;SDS011;10539;53.686;9.158;2022-07-12T03:05:38;8.23;;;4.57;;
20758;SDS011;10539;53.686;9.158;2022-07-12T03:08:05;12.37;;;5.23;;
20758;SDS011;10539;53.686;9.158;2022-07-12T03:10:32;6.97;;;4.30;;
20758;SDS011;10539;53.686;9.158;2022-07-12T03:12:58;10.63;;;4.47;;
20758;SDS011;10539;53.686;9.158;2022-07-12T03:15:24;10.23;;;4.20;;
20758;SDS011;10539;53.686;9.158;2022-07-12T03:17:51;14.47;;;4.70;;
20758;SDS011;10539;53.686;9.158;2022-07-12T03:20:16;12.43;;;4.67;;
20758;SDS011;10539;53.686;9.158;2022-07-12T03:22:42;18.60;;;5.30;;
20758;SDS011;10539;53.686;9.158;2022-07-12T03:25:14;9.70;;;4.23;;
20758;SDS011;10539;53.686;9.158;2022-07-12T03:27:40;11.53;;;5.03;;
20758;SDS011;10539;53.686;9.158;2022-07-12T03:30:06;11.43;;;4.20;;
20758;SDS011;10539;53.686;9.158;2022-07-12T03:32:33;9.20;;;4.17;;
20758;SDS011;10539;53.686;9.158;2022-07-12T03:34:59;13.83;;;4.73;;
20758;SDS011;10539;53.686;9.158;2022-07-12T03:37:26;8.80;;;4.50;;
20758;SDS011;10539;53.686;9.158;2022-07-12T03:39:52;9.93;;;4.40;;
20758;SDS011;10539;53.686;9.158;2022-07-12T03:42:18;7.90;;;4.70;;
20758;SDS011;10539;53.686;9.158;2022-07-12T03:44:45;7.43;;;4.43;;
20758;SDS011;10539;53.686;9.158;2022-07-12T03:47:11;11.17;;;4.23;;
20758;SDS011;10539;53.686;9.158;2022-07-12T03:49:37;10.10;;;4.90;;
20758;SDS011;10539;53.686;9.158;2022-07-12T03:52:02;9.17;;;4.47;;
20758;SDS011;10539;53.686;9.158;2022-07-12T03:54:28;7.57;;;3.97;;
20758;SDS011;10539;53.686;9.158;2022-07-12T03:56:54;7.67;;;4.50;;
20758;SDS011;10539;53.686;9.158;2022-07-12T03:59:38;11.20;;;4.40;;
20758;SDS011;10539;53.686;9.158;2022-07-12T04:02:04;10.87;;;4.90;;
20758;SDS011;10539;53.686;9.158;2022-07-12T04:04:30;10.70;;;4.53;;
20758;SDS011;10539;53.686;9.158;2022-07-12T04:06:55;6.97;;;3.77;;
20758;SDS011;10539;53.686;9.158;2022-07-12T04:09:21;6.93;;;4.03;;
20758;SDS011;10539;53.686;9.158;2022-07-12T04:11:47;7.83;;;4.27;;
20758;SDS011;10539;53.686;9.158;2022-07-12T04:14:13;9.97;;;4.13;;
20758;SDS011;10539;53.686;9.158;2022-07-12T04:16:41;6.13;;;3.63;;
20758;SDS011;10539;53.686;9.158;2022-07-12T04:19:10;4.50;;;3.60;;
20758;SDS011;10539;53.686;9.158;2022-07-12T04:21:41;6.13;;;3.80;;
20758;SDS011;10539;53.686;9.158;2022-07-12T04:24:17;5.03;;;3.73;;
20758;SDS011;10539;53.686;9.158;2022-07-12T04:26:55;7.43;;;4.00;;
20758;SDS011;10539;53.686;9.158;2022-07-12T04:29:24;5.53;;;3.53;;
20758;SDS011;10539;53.686;9.158;2022-07-12T04:31:52;5.07;;;3.53;;
20758;SDS011;10539;53.686;9.158;2022-07-12T04:34:18;5.97;;;3.63;;
20758;SDS011;10539;53.686;9.158;2022-07-12T04:36:44;8.07;;;3.70;;
20758;SDS011;10539;53.686;9.158;2022-07-12T04:39:11;5.00;;;3.40;;
20758;SDS011;10539;53.686;9.158;2022-07-12T04:41:37;6.97;;;3.50;;
20758;SDS011;10539;53.686;9.158;2022-07-12T04:44:03;7.17;;;3.33;;
20758;SDS011;10539;53.686;9.158;2022-07-12T04:46:30;7.73;;;3.77;;
20758;SDS011;10539;53.686;9.158;2022-07-12T04:48:55;5.33;;;3.23;;
20758;SDS011;10539;53.686;9.158;2022-07-12T04:51:21;7.03;;;3.67;;
20758;SDS011;10539;53.686;9.158;2022-07-12T04:53:47;6.33;;;3.30;;
20758;SDS011;10539;53.686;9.158;2022-07-12T04:56:16;6.63;;;3.63;;
20758;SDS011;10539;53.686;9.158;2022-07-12T04:58:41;8.33;;;3.97;;
20758;SDS011;10539;53.686;9.158;2022-07-12T05:01:07;6.67;;;3.50;;
20758;SDS011;10539;53.686;9.158;2022-07-12T05:03:34;8.17;;;3.33;;
20758;SDS011;10539;53.686;9.158;2022-07-12T05:06:00;6.63;;;3.73;;
20758;SDS011;10539;53.686;9.158;2022-07-12T05:08:25;5.83;;;3.47;;
20758;SDS011;10539;53.686;9.158;2022-07-12T05:10:51;4.60;;;3.50;;
20758;SDS011;10539;53.686;9.158;2022-07-12T05:13:35;8.30;;;3.33;;
20758;SDS011;10539;53.686;9.158;2022-07-12T05:16:01;14.60;;;3.70;;
20758;SDS011;10539;53.686;9.158;2022-07-12T05:18:27;5.20;;;3.00;;
20758;SDS011;10539;53.686;9.158;2022-07-12T05:20:53;4.17;;;3.27;;
20758;SDS011;10539;53.686;9.158;2022-07-12T05:23:19;5.20;;;3.50;;
20758;SDS011;10539;53.686;9.158;2022-07-12T05:25:44;6.83;;;3.53;;
20758;SDS011;10539;53.686;9.158;2022-07-12T05:28:10;4.43;;;3.27;;
20758;SDS011;10539;53.686;9.158;2022-07-12T05:30:36;6.57;;;3.13;;
20758;SDS011;10539;53.686;9.158;2022-07-12T05:33:02;5.03;;;3.20;;
20758;SDS011;10539;53.686;9.158;2022-07-12T05:35:28;4.50;;;2.97;;
20758;SDS011;10539;53.686;9.158;2022-07-12T05:37:53;5.97;;;3.20;;
20758;SDS011;10539;53.686;9.158;2022-07-12T05:40:19;7.87;;;3.70;;
20758;SDS011;10539;53.686;9.158;2022-07-12T05:42:45;6.53;;;3.80;;
20758;SDS011;10539;53.686;9.158;2022-07-12T05:45:11;4.70;;;3.00;;
20758;SDS011;10539;53.686;9.158;2022-07-12T05:47:37;3.73;;;3.00;;
20758;SDS011;10539;53.686;9.158;2022-07-12T05:50:04;6.90;;;2.80;;
20758;SDS011;10539;53.686;9.158;2022-07-12T05:52:30;4.10;;;2.73;;
20758;SDS011;10539;53.686;9.158;2022-07-12T05:55:14;3.10;;;2.63;;
20758;SDS011;10539;53.686;9.158;2022-07-12T05:57:40;4.37;;;2.63;;
20758;SDS011;10539;53.686;9.158;2022-07-12T06:00:06;4.13;;;2.67;;
20758;SDS011;10539;53.686;9.158;2022-07-12T06:02:32;4.37;;;2.63;;
20758;SDS011;10539;53.686;9.158;2022-07-12T06:04:58;4.33;;;2.60;;
20758;SDS011;10539;53.686;9.158;2022-07-12T06:07:23;3.90;;;2.60;;
20758;SDS011;10539;53.686;9.158;2022-07-12T06:09:49;3.67;;;2.47;;
20758;SDS011;10539;53.686;9.158;2022-07-12T06:12:15;3.33;;;2.33;;
20758;SDS011;10539;53.686;9.158;2022-07-12T06:14:40;3.67;;;2.47;;
20758;SDS011;10539;53.686;9.158;2022-07-12T06:17:06;2.57;;;2.13;;
20758;SDS011;10539;53.686;9.158;2022-07-12T06:19:33;2.97;;;2.40;;
20758;SDS011;10539;53.686;9.158;2022-07-12T06:21:58;3.00;;;2.43;;
20758;SDS011;10539;53.686;9.158;2022-07-12T06:24:25;3.97;;;2.60;;
20758;SDS011;10539;53.686;9.158;2022-07-12T06:26:51;3.23;;;2.30;;
20758;SDS011;10539;53.686;9.158;2022-07-12T06:29:16;4.17;;;2.23;;
20758;SDS011;10539;53.686;9.158;2022-07-12T06:31:42;3.47;;;2.57;;
20758;SDS011;10539;53.686;9.158;2022-07-12T06:34:08;3.50;;;2.40;;
20758;SDS011;10539;53.686;9.158;2022-07-12T06:36:33;3.57;;;2.30;;
20758;SDS011;10539;53.686;9.158;2022-07-12T06:38:59;3.87;;;2.10;;
20758;SDS011;10539;53.686;9.158;2022-07-12T06:41:25;3.97;;;1.77;;
20758;SDS011;10539;53.686;9.158;2022-07-12T06:43:51;3.10;;;2.00;;
20758;SDS011;10539;53.686;9.158;2022-07-12T06:46:16;2.83;;;1.60;;
20758;SDS011;10539;53.686;9.158;2022-07-12T06:48:42;2.43;;;1.90;;
20758;SDS011;10539;53.686;9.158;2022-07-12T06:51:11;1.90;;;1.60;;
20758;SDS011;10539;53.686;9.158;2022-07-12T06:53:37;2.20;;;1.50;;
20758;SDS011;10539;53.686;9.158;2022-07-12T06:56:03;2.17;;;1.97;;
20758;SDS011;10539;53.686;9.158;2022-07-12T06:58:29;2.03;;;1.33;;
20758;SDS011;10539;53.686;9.158;2022-07-12T07:00:55;1.90;;;1.50;;
20758;SDS011;10539;53.686;9.158;2022-07-12T07:03:21;1.90;;;1.50;;
20758;SDS011;10539;53.686;9.158;2022-07-12T07:05:49;2.53;;;1.23;;
20758;SDS011;10539;53.686;9.158;2022-07-12T07:08:15;2.20;;;1.50;;
20758;SDS011;10539;53.686;9.158;2022-07-12T07:10:41;2.77;;;1.47;;
20758;SDS011;10539;53.686;9.158;2022-07-12T07:13:08;2.53;;;1.20;;
20758;SDS011;10539;53.686;9.158;2022-07-12T07:15:35;1.30;;;1.20;;
20758;SDS011;10539;53.686;9.158;2022-07-12T07:18:04;1.30;;;1.20;;
20758;SDS011;10539;53.686;9.158;2022-07-12T07:20:29;1.40;;;1.30;;
20758;SDS011;10539;53.686;9.158;2022-07-12T07:22:55;1.50;;;1.30;;
20758;SDS011;10539;53.686;9.158;2022-07-12T07:25:21;2.60;;;1.40;;
20758;SDS011;10539;53.686;9.158;2022-07-12T07:27:47;2.13;;;1.50;;
20758;SDS011;10539;53.686;9.158;2022-07-12T07:30:13;1.10;;;1.00;;
20758;SDS011;10539;53.686;9.158;2022-07-12T07:32:57;1.83;;;1.10;;
20758;SDS011;10539;53.686;9.158;2022-07-12T07:35:23;1.57;;;1.10;;
20758;SDS011;10539;53.686;9.158;2022-07-12T07:37:49;1.33;;;1.20;;
20758;SDS011;10539;53.686;9.158;2022-07-12T07:40:17;2.17;;;1.07;;
20758;SDS011;10539;53.686;9.158;2022-07-12T07:42:46;1.50;;;1.00;;
20758;SDS011;10539;53.686;9.158;2022-07-12T07:45:11;1.73;;;1.10;;
20758;SDS011;10539;53.686;9.158;2022-07-12T07:47:47;1.50;;;1.20;;
20758;SDS011;10539;53.686;9.158;2022-07-12T07:50:14;2.90;;;1.70;;
20758;SDS011;10539;53.686;9.158;2022-07-12T07:52:41;2.20;;;1.40;;
20758;SDS011;10539;53.686;9.158;2022-07-12T07:55:06;2.50;;;1.73;;
20758;SDS011;10539;53.686;9.158;2022-07-12T07:57:33;2.37;;;1.70;;
20758;SDS011;10539;53.686;9.158;2022-07-12T07:59:58;2.57;;;1.70;;
20758;SDS011;10539;53.686;9.158;2022-07-12T08:02:24;2.00;;;1.70;;
20758;SDS011;10539;53.686;9.158;2022-07-12T08:04:50;2.63;;;1.90;;
20758;SDS011;10539;53.686;9.158;2022-07-12T08:07:17;2.10;;;1.70;;
20758;SDS011;10539;53.686;9.158;2022-07-12T08:09:42;4.23;;;2.00;;
20758;SDS011;10539;53.686;9.158;2022-07-12T08:12:08;2.53;;;2.00;;
20758;SDS011;10539;53.686;9.158;2022-07-12T08:14:34;2.37;;;1.67;;
20758;SDS011;10539;53.686;9.158;2022-07-12T08:16:59;3.07;;;2.50;;
20758;SDS011;10539;53.686;9.158;2022-07-12T08:19:25;3.73;;;1.90;;
20758;SDS011;10539;53.686;9.158;2022-07-12T08:21:51;4.07;;;2.00;;
20758;SDS011;10539;53.686;9.158;2022-07-12T08:24:16;2.47;;;1.83;;
20758;SDS011;10539;53.686;9.158;2022-07-12T08:26:42;2.50;;;2.30;;
20758;SDS011;10539;53.686;9.158;2022-07-12T08:29:08;3.23;;;2.20;;
20758;SDS011;10539;53.686;9.158;2022-07-12T08:31:34;2.80;;;2.50;;
20758;SDS011;10539;53.686;9.158;2022-07-12T08:34:00;3.80;;;2.53;;
20758;SDS011;10539;53.686;9.158;2022-07-12T08:36:25;3.33;;;2.20;;
20758;SDS011;10539;53.686;9.158;2022-07-12T08:38:51;3.17;;;2.20;;
20758;SDS011;10539;53.686;9.158;2022-07-12T08:41:17;3.63;;;2.13;;
20758;SDS011;10539;53.686;9.158;2022-07-12T08:43:43;2.87;;;2.20;;
20758;SDS011;10539;53.686;9.158;2022-07-12T08:46:10;3.17;;;2.43;;
20758;SDS011;10539;53.686;9.158;2022-07-12T08:48:37;4.20;;;2.37;;
20758;SDS011;10539;53.686;9.158;2022-07-12T08:51:05;4.20;;;2.83;;
20758;SDS011;10539;53.686;9.158;2022-07-12T08:53:32;4.90;;;3.40;;
20758;SDS011;10539;53.686;9.158;2022-07-12T08:55:58;3.63;;;3.23;;
20758;SDS011;10539;53.686;9.158;2022-07-12T08:58:24;3.57;;;2.97;;
20758;SDS011;10539;53.686;9.158;2022-07-12T09:00:50;4.50;;;3.23;;
20758;SDS011;10539;53.686;9.158;2022-07-12T09:03:17;3.50;;;2.70;;
20758;SDS011;10539;53.686;9.158;2022-07-12T09:05:50;3.33;;;2.80;;
20758;SDS011;10539;53.686;9.158;2022-07-12T09:08:28;4.23;;;2.63;;
20758;SDS011;10539;53.686;9.158;2022-07-12T09:16:24;4.22;;;3.67;;
20758;SDS011;10539;53.686;9.158;2022-07-12T09:18:51;3.80;;;2.80;;
20758;SDS011;10539;53.686;9.158;2022-07-12T09:21:36;3.75;;;3.20;;
20758;SDS011;10539;53.686;9.158;2022-07-12T09:24:01;4.95;;;3.60;;
20758;SDS011;10539;53.686;9.158;2022-07-12T09:26:31;5.13;;;3.28;;
20758;SDS011;10539;53.686;9.158;2022-07-12T09:29:07;5.45;;;2.85;;
20758;SDS011;10539;53.686;9.158;2022-07-12T09:31:45;4.28;;;3.70;;
20758;SDS011;10539;53.686;9.158;2022-07-12T09:34:32;3.53;;;3.10;;
20758;SDS011;10539;53.686;9.158;2022-07-12T09:37:16;3.97;;;3.15;;
20758;SDS011;10539;53.686;9.158;2022-07-12T09:39:42;3.88;;;3.40;;
20758;SDS011;10539;53.686;9.158;2022-07-12T09:42:08;3.63;;;3.30;;
20758;SDS011;10539;53.686;9.158;2022-07-12T09:44:35;4.55;;;3.47;;
20758;SDS011;10539;53.686;9.158;2022-07-12T09:47:01;3.47;;;3.17;;
20758;SDS011;10539;53.686;9.158;2022-07-12T09:49:28;4.40;;;3.55;;
20758;SDS011;10539;53.686;9.158;2022-07-12T09:51:55;3.80;;;3.50;;
20758;SDS011;10539;53.686;9.158;2022-07-12T09:54:25;5.00;;;3.40;;
20758;SDS011;10539;53.686;9.158;2022-07-12T09:56:53;5.22;;;3.50;;
20758;SDS011;10539;53.686;9.158;2022-07-12T09:59:22;4.65;;;3.63;;
20758;SDS011;10539;53.686;9.158;2022-07-12T10:01:50;4.70;;;3.13;;
20758;SDS011;10539;53.686;9.158;2022-07-12T10:04:20;3.35;;;3.05;;
20758;SDS011;10539;53.686;9.158;2022-07-12T10:06:49;4.88;;;4.38;;
20758;SDS011;10539;53.686;9.158;2022-07-12T10:09:16;3.30;;;2.92;;
20758;SDS011;10539;53.686;9.158;2022-07-12T10:11:45;3.78;;;2.92;;
20758;SDS011;10539;53.686;9.158;2022-07-12T10:14:17;3.95;;;2.70;;
20758;SDS011;10539;53.686;9.158;2022-07-12T10:16:50;3.38;;;2.45;;
20758;SDS011;10539;53.686;9.158;2022-07-12T10:22:28;3.03;;;2.72;;
20758;SDS011;10539;53.686;9.158;2022-07-12T10:29:04;3.30;;;3.00;;
20758;SDS011;10539;53.686;9.158;2022-07-12T10:31:37;3.83;;;3.28;;
20758;SDS011;10539;53.686;9.158;2022-07-12T10:34:15;3.15;;;2.85;;
20758;SDS011;10539;53.686;9.158;2022-07-12T10:37:17;5.30;;;3.20;;
20758;SDS011;10539;53.686;9.158;2022-07-12T10:45:37;4.80;;;3.00;;
20758;SDS011;10539;53.686;9.158;2022-07-12T10:50:56;4.30;;;2.45;;
20758;SDS011;10539;53.686;9.158;2022-07-12T10:53:35;5.03;;;2.80;;
20758;SDS011;10539;53.686;9.158;2022-07-12T10:56:22;2.90;;;2.60;;
20758;SDS011;10539;53.686;9.158;2022-07-12T10:59:00;3.70;;;2.60;;
20758;SDS011;10539;53.686;9.158;2022-07-12T11:01:42;2.60;;;2.40;;
20758;SDS011;10539;53.686;9.158;2022-07-12T11:04:15;4.03;;;2.75;;
20758;SDS011;10539;53.686;9.158;2022-07-12T11:06:48;3.33;;;2.50;;
20758;SDS011;10539;53.686;9.158;2022-07-12T11:09:28;2.95;;;2.40;;
20758;SDS011;10539;53.686;9.158;2022-07-12T11:12:05;2.08;;;1.80;;
20758;SDS011;10539;53.686;9.158;2022-07-12T11:14:39;2.50;;;2.30;;
20758;SDS011;10539;53.686;9.158;2022-07-12T11:17:25;2.15;;;1.90;;
20758;SDS011;10539;53.686;9.158;2022-07-12T11:22:51;3.28;;;2.10;;
20758;SDS011;10539;53.686;9.158;2022-07-12T11:25:34;2.35;;;1.88;;
20758;SDS011;10539;53.686;9.158;2022-07-12T11:28:06;3.10;;;2.00;;
20758;SDS011;10539;53.686;9.158;2022-07-12T11:30:53;2.28;;;1.83;;
20758;SDS011;10539;53.686;9.158;2022-07-12T11:33:38;3.15;;;1.98;;
20758;SDS011;10539;53.686;9.158;2022-07-12T11:36:18;3.28;;;1.88;;
20758;SDS011;10539;53.686;9.158;2022-07-12T11:38:59;2.47;;;2.28;;
20758;SDS011;10539;53.686;9.158;2022-07-12T11:41:35;3.65;;;2.03;;
20758;SDS011;10539;53.686;9.158;2022-07-12T11:44:17;2.88;;;2.03;;
20758;SDS011;10539;53.686;9.158;2022-07-12T11:46:55;2.28;;;1.95;;
20758;SDS011;10539;53.686;9.158;2022-07-12T11:49:21;1.80;;;1.70;;
20758;SDS011;10539;53.686;9.158;2022-07-12T11:51:51;4.13;;;2.58;;
20758;SDS011;10539;53.686;9.158;2022-07-12T11:54:43;2.92;;;2.50;;
20758;SDS011;10539;53.686;9.158;2022-07-12T11:57:12;2.78;;;2.40;;
20758;SDS011;10539;53.686;9.158;2022-07-12T11:59:39;2.80;;;2.40;;
20758;SDS011;10539;53.686;9.158;2022-07-12T12:02:10;3.15;;;2.80;;
20758;SDS011;10539;53.686;9.158;2022-07-12T12:07:11;3.75;;;2.63;;
20758;SDS011;10539;53.686;9.158;2022-07-12T12:10:05;3.65;;;3.25;;
20758;SDS011;10539;53.686;9.158;2022-07-12T12:12:36;3.35;;;2.88;;
20758;SDS011;10539;53.686;9.158;2022-07-12T12:15:09;4.10;;;3.70;;
20758;SDS011;10539;53.686;9.158;2022-07-12T12:17:42;3.88;;;3.03;;
20758;SDS011;10539;53.686;9.158;2022-07-12T12:20:11;5.05;;;3.40;;
20758;SDS011;10539;53.686;9.158;2022-07-12T12:22:40;4.47;;;3.78;;
20758;SDS011;10539;53.686;9.158;2022-07-12T12:25:07;4.50;;;3.40;;
20758;SDS011;10539;53.686;9.158;2022-07-12T12:30:33;3.38;;;3.00;;
20758;SDS011;10539;53.686;9.158;2022-07-12T12:33:01;3.63;;;3.20;;
20758;SDS011;10539;53.686;9.158;2022-07-12T12:35:32;5.05;;;3.35;;
20758;SDS011;10539;53.686;9.158;2022-07-12T12:38:00;3.60;;;3.30;;
20758;SDS011;10539;53.686;9.158;2022-07-12T12:40:36;7.38;;;3.72;;
20758;SDS011;10539;53.686;9.158;2022-07-12T12:43:10;3.53;;;3.20;;
20758;SDS011;10539;53.686;9.158;2022-07-12T12:45:50;5.60;;;3.90;;
20758;SDS011;10539;53.686;9.158;2022-07-12T12:48:18;3.95;;;3.55;;
20758;SDS011;10539;53.686;9.158;2022-07-12T12:50:45;4.25;;;3.70;;
20758;SDS011;10539;53.686;9.158;2022-07-12T12:53:16;5.60;;;4.72;;
20758;SDS011;10539;53.686;9.158;2022-07-12T12:55:44;4.15;;;3.75;;
20758;SDS011;10539;53.686;9.158;2022-07-12T12:58:11;5.07;;;3.42;;
20758;SDS011;10539;53.686;9.158;2022-07-12T13:00:39;6.07;;;3.67;;
20758;SDS011;10539;53.686;9.158;2022-07-12T13:03:09;5.68;;;4.20;;
20758;SDS011;10539;53.686;9.158;2022-07-12T13:05:37;4.55;;;4.05;;
20758;SDS011;10539;53.686;9.158;2022-07-12T13:08:04;5.25;;;4.10;;
20758;SDS011;10539;53.686;9.158;2022-07-12T13:10:31;5.78;;;4.70;;
20758;SDS011;10539;53.686;9.158;2022-07-12T13:12:57;5.47;;;4.97;;
20758;SDS011;10539;53.686;9.158;2022-07-12T13:15:24;5.18;;;4.68;;
20758;SDS011;10539;53.686;9.158;2022-07-12T13:17:50;4.00;;;3.60;;
20758;SDS011;10539;53.686;9.158;2022-07-12T13:20:16;3.53;;;3.10;;
20758;SDS011;10539;53.686;9.158;2022-07-12T13:22:42;4.53;;;2.50;;
20758;SDS011;10539;53.686;9.158;2022-07-12T13:25:12;2.58;;;1.90;;
20758;SDS011;10539;53.686;9.158;2022-07-12T13:27:40;1.77;;;1.67;;
20758;SDS011;10539;53.686;9.158;2022-07-12T13:30:07;1.65;;;1.52;;
20758;SDS011;10539;53.686;9.158;2022-07-12T13:32:35;4.35;;;1.80;;
20758;SDS011;10539;53.686;9.158;2022-07-12T13:35:02;4.07;;;1.60;;
20758;SDS011;10539;53.686;9.158;2022-07-12T13:37:32;2.28;;;1.60;;
20758;SDS011;10539;53.686;9.158;2022-07-12T13:39:58;1.88;;;1.40;;
20758;SDS011;10539;53.686;9.158;2022-07-12T13:42:39;2.17;;;1.40;;
20758;SDS011;10539;53.686;9.158;2022-07-12T13:45:23;1.42;;;1.15;;
20758;SDS011;10539;53.686;9.158;2022-07-12T13:47:49;1.23;;;1.08;;
20758;SDS011;10539;53.686;9.158;2022-07-12T13:50:18;1.55;;;1.20;;
20758;SDS011;10539;53.686;9.158;2022-07-12T13:52:45;1.00;;;0.90;;
20758;SDS011;10539;53.686;9.158;2022-07-12T13:55:14;1.23;;;0.90;;
20758;SDS011;10539;53.686;9.158;2022-07-12T13:57:41;1.48;;;1.05;;
20758;SDS011;10539;53.686;9.158;2022-07-12T14:00:11;1.67;;;0.75;;
20758;SDS011;10539;53.686;9.158;2022-07-12T14:02:39;1.85;;;1.02;;
20758;SDS011;10539;53.686;9.158;2022-07-12T14:05:06;1.52;;;0.98;;
20758;SDS011;10539;53.686;9.158;2022-07-12T14:07:33;2.78;;;0.90;;
20758;SDS011;10539;53.686;9.158;2022-07-12T14:09:59;4.00;;;1.00;;
20758;SDS011;10539;53.686;9.158;2022-07-12T14:12:26;1.52;;;0.85;;
20758;SDS011;10539;53.686;9.158;2022-07-12T14:14:52;0.80;;;0.80;;
20758;SDS011;10539;53.686;9.158;2022-07-12T14:17:57;1.13;;;0.70;;
20758;SDS011;10539;53.686;9.158;2022-07-12T14:20:22;0.93;;;0.80;;
20758;SDS011;10539;53.686;9.158;2022-07-12T14:22:48;0.77;;;0.70;;
20758;SDS011;10539;53.686;9.158;2022-07-12T14:25:14;1.27;;;0.90;;
20758;SDS011;10539;53.686;9.158;2022-07-12T14:27:41;0.70;;;0.70;;
20758;SDS011;10539;53.686;9.158;2022-07-12T14:30:08;2.65;;;0.80;;
20758;SDS011;10539;53.686;9.158;2022-07-12T14:32:36;1.23;;;0.70;;
20758;SDS011;10539;53.686;9.158;2022-07-12T14:35:03;0.70;;;0.70;;
20758;SDS011;10539;53.686;9.158;2022-07-12T14:37:30;1.80;;;0.57;;
20758;SDS011;10539;53.686;9.158;2022-07-12T14:39:57;1.30;;;0.55;;
20758;SDS011;10539;53.686;9.158;2022-07-12T14:42:23;1.70;;;0.73;;
20758;SDS011;10539;53.686;9.158;2022-07-12T14:44:48;0.93;;;0.63;;
20758;SDS011;10539;53.686;9.158;2022-07-12T14:47:14;0.63;;;0.60;;
20758;SDS011;10539;53.686;9.158;2022-07-12T14:49:40;2.58;;;0.47;;
20758;SDS011;10539;53.686;9.158;2022-07-12T14:52:06;0.95;;;0.40;;
20758;SDS011;10539;53.686;9.158;2022-07-12T14:54:32;0.40;;;0.40;;
20758;SDS011;10539;53.686;9.158;2022-07-12T14:56:58;0.82;;;0.40;;
20758;SDS011;10539;53.686;9.158;2022-07-12T14:59:24;0.52;;;0.40;;
20758;SDS011;10539;53.686;9.158;2022-07-12T15:01:49;1.13;;;0.40;;
20758;SDS011;10539;53.686;9.158;2022-07-12T15:04:18;0.50;;;0.50;;
20758;SDS011;10539;53.686;9.158;2022-07-12T15:06:43;1.15;;;0.52;;
20758;SDS011;10539;53.686;9.158;2022-07-12T15:09:09;0.38;;;0.30;;
20758;SDS011;10539;53.686;9.158;2022-07-12T15:11:35;0.50;;;0.35;;
20758;SDS011;10539;53.686;9.158;2022-07-12T15:14:01;0.22;;;0.22;;
20758;SDS011;10539;53.686;9.158;2022-07-12T15:16:28;0.35;;;0.30;;
20758;SDS011;10539;53.686;9.158;2022-07-12T15:18:53;0.30;;;0.30;;
20758;SDS011;10539;53.686;9.158;2022-07-12T15:21:19;0.40;;;0.40;;
20758;SDS011;10539;53.686;9.158;2022-07-12T15:23:45;0.77;;;0.25;;
20758;SDS011;10539;53.686;9.158;2022-07-12T15:26:11;0.43;;;0.20;;